sensor_id;sensor_type;location;lat;lon;timestamp;P1;durP1;ratioP1;P2;durP2;ratioP2
12869;SDS011;6503;48.572;13.460;2023-06-22T00:00:13;7.57;;;3.70;;
12869;SDS011;6503;48.572;13.460;2023-06-22T00:02:41;8.85;;;4.07;;
12869;SDS011;6503;48.572;13.460;2023-06-22T00:05:08;8.30;;;3.97;;
12869;SDS011;6503;48.572;13.460;2023-06-22T00:07:36;7.28;;;3.95;;
12869;SDS011;6503;48.572;13.460;2023-06-22T00:10:06;7.32;;;4.00;;
12869;SDS011;6503;48.572;13.460;2023-06-22T00:12:33;11.20;;;3.92;;
12869;SDS011;6503;48.572;13.460;2023-06-22T00:15:01;6.20;;;3.58;;
12869;SDS011;6503;48.572;13.460;2023-06-22T00:17:30;9.98;;;4.40;;
12869;SDS011;6503;48.572;13.460;2023-06-22T00:19:59;8.45;;;3.70;;
12869;SDS011;6503;48.572;13.460;2023-06-22T00:22:30;6.43;;;3.78;;
12869;SDS011;6503;48.572;13.460;2023-06-22T00:25:06;7.03;;;4.18;;
12869;SDS011;6503;48.572;13.460;2023-06-22T00:27:33;6.07;;;3.78;;
12869;SDS011;6503;48.572;13.460;2023-06-22T00:30:02;7.88;;;4.20;;
12869;SDS011;6503;48.572;13.460;2023-06-22T00:32:29;5.93;;;4.00;;
12869;SDS011;6503;48.572;13.460;2023-06-22T00:34:57;8.00;;;4.38;;
12869;SDS011;6503;48.572;13.460;2023-06-22T00:37:25;11.43;;;3.83;;
12869;SDS011;6503;48.572;13.460;2023-06-22T00:39:54;8.63;;;4.05;;
12869;SDS011;6503;48.572;13.460;2023-06-22T00:42:23;9.82;;;3.88;;
12869;SDS011;6503;48.572;13.460;2023-06-22T00:44:51;9.40;;;4.45;;
12869;SDS011;6503;48.572;13.460;2023-06-22T00:47:18;8.23;;;4.53;;
12869;SDS011;6503;48.572;13.460;2023-06-22T00:49:49;10.32;;;4.78;;
12869;SDS011;6503;48.572;13.460;2023-06-22T00:52:17;9.63;;;4.18;;
12869;SDS011;6503;48.572;13.460;2023-06-22T00:54:46;7.35;;;4.30;;
12869;SDS011;6503;48.572;13.460;2023-06-22T00:57:15;9.07;;;3.97;;
12869;SDS011;6503;48.572;13.460;2023-06-22T00:59:47;9.55;;;4.20;;
12869;SDS011;6503;48.572;13.460;2023-06-22T01:02:15;10.63;;;4.10;;
12869;SDS011;6503;48.572;13.460;2023-06-22T01:04:42;8.30;;;4.20;;
12869;SDS011;6503;48.572;13.460;2023-06-22T01:07:10;9.32;;;4.20;;
12869;SDS011;6503;48.572;13.460;2023-06-22T01:09:42;8.38;;;4.18;;
12869;SDS011;6503;48.572;13.460;2023-06-22T01:12:11;6.45;;;3.67;;
12869;SDS011;6503;48.572;13.460;2023-06-22T01:14:41;8.65;;;4.10;;
12869;SDS011;6503;48.572;13.460;2023-06-22T01:17:10;9.35;;;5.05;;
12869;SDS011;6503;48.572;13.460;2023-06-22T01:19:43;7.93;;;4.45;;
12869;SDS011;6503;48.572;13.460;2023-06-22T01:22:13;8.40;;;4.75;;
12869;SDS011;6503;48.572;13.460;2023-06-22T01:24:44;6.35;;;3.72;;
12869;SDS011;6503;48.572;13.460;2023-06-22T01:27:17;8.27;;;4.10;;
12869;SDS011;6503;48.572;13.460;2023-06-22T01:29:49;9.43;;;4.43;;
12869;SDS011;6503;48.572;13.460;2023-06-22T01:34:44;7.60;;;4.25;;
12869;SDS011;6503;48.572;13.460;2023-06-22T01:37:14;7.95;;;4.28;;
12869;SDS011;6503;48.572;13.460;2023-06-22T01:39:42;8.73;;;4.45;;
12869;SDS011;6503;48.572;13.460;2023-06-22T01:42:10;9.93;;;4.32;;
12869;SDS011;6503;48.572;13.460;2023-06-22T01:44:37;9.48;;;4.43;;
12869;SDS011;6503;48.572;13.460;2023-06-22T01:47:07;9.07;;;4.25;;
12869;SDS011;6503;48.572;13.460;2023-06-22T01:49:35;10.38;;;4.60;;
12869;SDS011;6503;48.572;13.460;2023-06-22T01:52:03;8.60;;;4.13;;
12869;SDS011;6503;48.572;13.460;2023-06-22T01:54:30;10.70;;;4.53;;
12869;SDS011;6503;48.572;13.460;2023-06-22T01:56:58;8.02;;;4.18;;
12869;SDS011;6503;48.572;13.460;2023-06-22T01:59:26;8.48;;;3.95;;
12869;SDS011;6503;48.572;13.460;2023-06-22T02:01:57;6.13;;;4.10;;
12869;SDS011;6503;48.572;13.460;2023-06-22T02:04:30;8.20;;;3.92;;
12869;SDS011;6503;48.572;13.460;2023-06-22T02:07:00;9.07;;;3.97;;
12869;SDS011;6503;48.572;13.460;2023-06-22T02:09:30;9.05;;;4.28;;
12869;SDS011;6503;48.572;13.460;2023-06-22T02:11:58;7.40;;;4.47;;
12869;SDS011;6503;48.572;13.460;2023-06-22T02:14:29;9.57;;;4.00;;
12869;SDS011;6503;48.572;13.460;2023-06-22T02:16:57;8.10;;;4.63;;
12869;SDS011;6503;48.572;13.460;2023-06-22T02:19:26;8.35;;;4.22;;
12869;SDS011;6503;48.572;13.460;2023-06-22T02:21:59;6.97;;;4.13;;
12869;SDS011;6503;48.572;13.460;2023-06-22T02:24:27;8.18;;;4.70;;
12869;SDS011;6503;48.572;13.460;2023-06-22T02:29:24;8.18;;;4.38;;
12869;SDS011;6503;48.572;13.460;2023-06-22T02:31:52;8.65;;;4.35;;
12869;SDS011;6503;48.572;13.460;2023-06-22T02:34:20;6.30;;;3.90;;
12869;SDS011;6503;48.572;13.460;2023-06-22T02:36:48;9.73;;;3.85;;
12869;SDS011;6503;48.572;13.460;2023-06-22T02:39:23;8.73;;;3.90;;
12869;SDS011;6503;48.572;13.460;2023-06-22T02:41:52;11.55;;;4.60;;
12869;SDS011;6503;48.572;13.460;2023-06-22T02:44:20;7.88;;;4.70;;
12869;SDS011;6503;48.572;13.460;2023-06-22T02:46:48;8.98;;;4.05;;
12869;SDS011;6503;48.572;13.460;2023-06-22T02:49:15;8.65;;;4.13;;
12869;SDS011;6503;48.572;13.460;2023-06-22T02:51:45;11.00;;;4.20;;
12869;SDS011;6503;48.572;13.460;2023-06-22T02:54:13;8.73;;;4.18;;
12869;SDS011;6503;48.572;13.460;2023-06-22T02:56:43;11.15;;;4.38;;
12869;SDS011;6503;48.572;13.460;2023-06-22T02:59:10;13.10;;;4.82;;
12869;SDS011;6503;48.572;13.460;2023-06-22T03:01:38;8.68;;;4.57;;
12869;SDS011;6503;48.572;13.460;2023-06-22T03:04:06;7.07;;;4.35;;
12869;SDS011;6503;48.572;13.460;2023-06-22T03:06:33;10.43;;;4.50;;
12869;SDS011;6503;48.572;13.460;2023-06-22T03:09:02;11.10;;;4.18;;
12869;SDS011;6503;48.572;13.460;2023-06-22T03:11:30;7.55;;;3.72;;
12869;SDS011;6503;48.572;13.460;2023-06-22T03:13:59;10.57;;;4.10;;
12869;SDS011;6503;48.572;13.460;2023-06-22T03:16:27;7.80;;;4.45;;
12869;SDS011;6503;48.572;13.460;2023-06-22T03:18:54;10.35;;;4.10;;
12869;SDS011;6503;48.572;13.460;2023-06-22T03:21:22;9.43;;;4.18;;
12869;SDS011;6503;48.572;13.460;2023-06-22T03:23:50;7.25;;;4.18;;
12869;SDS011;6503;48.572;13.460;2023-06-22T03:26:17;8.98;;;4.15;;
12869;SDS011;6503;48.572;13.460;2023-06-22T03:28:45;8.48;;;4.07;;
12869;SDS011;6503;48.572;13.460;2023-06-22T03:31:14;10.25;;;4.30;;
12869;SDS011;6503;48.572;13.460;2023-06-22T03:33:46;12.27;;;5.22;;
12869;SDS011;6503;48.572;13.460;2023-06-22T03:36:14;9.68;;;4.53;;
12869;SDS011;6503;48.572;13.460;2023-06-22T03:38:43;9.05;;;4.50;;
12869;SDS011;6503;48.572;13.460;2023-06-22T03:41:11;11.10;;;5.07;;
12869;SDS011;6503;48.572;13.460;2023-06-22T03:43:39;12.65;;;4.78;;
12869;SDS011;6503;48.572;13.460;2023-06-22T03:46:06;9.45;;;4.22;;
12869;SDS011;6503;48.572;13.460;2023-06-22T03:48:35;8.35;;;4.10;;
12869;SDS011;6503;48.572;13.460;2023-06-22T03:51:03;7.32;;;4.32;;
12869;SDS011;6503;48.572;13.460;2023-06-22T03:53:30;11.38;;;4.38;;
12869;SDS011;6503;48.572;13.460;2023-06-22T03:55:58;10.02;;;4.13;;
12869;SDS011;6503;48.572;13.460;2023-06-22T03:58:26;8.85;;;4.22;;
12869;SDS011;6503;48.572;13.460;2023-06-22T04:01:00;9.43;;;4.65;;
12869;SDS011;6503;48.572;13.460;2023-06-22T04:03:28;9.10;;;4.63;;
12869;SDS011;6503;48.572;13.460;2023-06-22T04:05:57;10.15;;;4.35;;
12869;SDS011;6503;48.572;13.460;2023-06-22T04:08:24;8.73;;;4.68;;
12869;SDS011;6503;48.572;13.460;2023-06-22T04:10:52;10.43;;;4.35;;
12869;SDS011;6503;48.572;13.460;2023-06-22T04:13:20;7.78;;;4.72;;
12869;SDS011;6503;48.572;13.460;2023-06-22T04:15:47;10.40;;;5.07;;
12869;SDS011;6503;48.572;13.460;2023-06-22T04:18:15;9.82;;;3.97;;
12869;SDS011;6503;48.572;13.460;2023-06-22T04:20:45;8.38;;;4.28;;
12869;SDS011;6503;48.572;13.460;2023-06-22T04:23:14;9.45;;;5.07;;
12869;SDS011;6503;48.572;13.460;2023-06-22T04:25:42;10.13;;;4.20;;
12869;SDS011;6503;48.572;13.460;2023-06-22T04:28:09;7.15;;;4.07;;
12869;SDS011;6503;48.572;13.460;2023-06-22T04:30:37;6.55;;;3.70;;
12869;SDS011;6503;48.572;13.460;2023-06-22T04:33:11;7.32;;;4.22;;
12869;SDS011;6503;48.572;13.460;2023-06-22T04:35:38;7.22;;;4.35;;
12869;SDS011;6503;48.572;13.460;2023-06-22T04:38:06;8.90;;;4.65;;
12869;SDS011;6503;48.572;13.460;2023-06-22T04:40:41;10.63;;;4.72;;
12869;SDS011;6503;48.572;13.460;2023-06-22T04:43:09;8.05;;;4.40;;
12869;SDS011;6503;48.572;13.460;2023-06-22T04:45:42;9.15;;;5.03;;
12869;SDS011;6503;48.572;13.460;2023-06-22T04:48:21;9.35;;;5.05;;
12869;SDS011;6503;48.572;13.460;2023-06-22T04:50:48;11.93;;;4.65;;
12869;SDS011;6503;48.572;13.460;2023-06-22T04:53:18;13.30;;;5.28;;
12869;SDS011;6503;48.572;13.460;2023-06-22T05:14:08;11.70;;;4.90;;
12869;SDS011;6503;48.572;13.460;2023-06-22T05:16:52;12.20;;;5.90;;
12869;SDS011;6503;48.572;13.460;2023-06-22T05:19:25;12.70;;;6.03;;
12869;SDS011;6503;48.572;13.460;2023-06-22T05:22:10;10.18;;;4.53;;
12869;SDS011;6503;48.572;13.460;2023-06-22T05:24:55;9.43;;;4.72;;
12869;SDS011;6503;48.572;13.460;2023-06-22T05:27:25;9.20;;;4.65;;
12869;SDS011;6503;48.572;13.460;2023-06-22T05:29:55;9.90;;;4.80;;
12869;SDS011;6503;48.572;13.460;2023-06-22T05:32:34;13.10;;;5.50;;
12869;SDS011;6503;48.572;13.460;2023-06-22T05:35:18;10.20;;;4.45;;
12869;SDS011;6503;48.572;13.460;2023-06-22T05:38:03;11.00;;;4.40;;
12869;SDS011;6503;48.572;13.460;2023-06-22T05:43:51;8.75;;;4.88;;
12869;SDS011;6503;48.572;13.460;2023-06-22T05:49:28;8.52;;;4.70;;
12869;SDS011;6503;48.572;13.460;2023-06-22T05:51:59;7.55;;;4.60;;
12869;SDS011;6503;48.572;13.460;2023-06-22T05:54:43;10.07;;;4.97;;
12869;SDS011;6503;48.572;13.460;2023-06-22T05:59:45;7.63;;;4.25;;
12869;SDS011;6503;48.572;13.460;2023-06-22T06:02:29;9.73;;;4.72;;
12869;SDS011;6503;48.572;13.460;2023-06-22T06:11:29;11.20;;;4.90;;
12869;SDS011;6503;48.572;13.460;2023-06-22T06:14:00;7.30;;;4.00;;
12869;SDS011;6503;48.572;13.460;2023-06-22T06:16:38;10.70;;;4.75;;
12869;SDS011;6503;48.572;13.460;2023-06-22T06:19:51;9.75;;;4.63;;
12869;SDS011;6503;48.572;13.460;2023-06-22T06:22:20;10.13;;;4.45;;
12869;SDS011;6503;48.572;13.460;2023-06-22T06:25:13;6.40;;;3.80;;
12869;SDS011;6503;48.572;13.460;2023-06-22T06:36:47;7.82;;;4.25;;
12869;SDS011;6503;48.572;13.460;2023-06-22T06:39:20;9.43;;;4.57;;
12869;SDS011;6503;48.572;13.460;2023-06-22T06:41:52;9.23;;;4.55;;
12869;SDS011;6503;48.572;13.460;2023-06-22T07:19:35;7.10;;;4.15;;
12869;SDS011;6503;48.572;13.460;2023-06-22T07:22:09;9.20;;;4.53;;
12869;SDS011;6503;48.572;13.460;2023-06-22T07:24:59;6.78;;;4.35;;
12869;SDS011;6503;48.572;13.460;2023-06-22T07:27:37;8.00;;;4.60;;
12869;SDS011;6503;48.572;13.460;2023-06-22T07:30:09;9.90;;;4.78;;
12869;SDS011;6503;48.572;13.460;2023-06-22T07:32:52;8.43;;;4.47;;
12869;SDS011;6503;48.572;13.460;2023-06-22T07:35:24;9.07;;;4.75;;
12869;SDS011;6503;48.572;13.460;2023-06-22T07:37:55;8.63;;;4.65;;
12869;SDS011;6503;48.572;13.460;2023-06-22T07:40:27;7.38;;;4.53;;
12869;SDS011;6503;48.572;13.460;2023-06-22T07:42:55;6.82;;;4.90;;
12869;SDS011;6503;48.572;13.460;2023-06-22T07:45:25;8.80;;;4.88;;
12869;SDS011;6503;48.572;13.460;2023-06-22T07:47:52;8.80;;;4.55;;
12869;SDS011;6503;48.572;13.460;2023-06-22T07:50:28;7.80;;;4.60;;
12869;SDS011;6503;48.572;13.460;2023-06-22T07:53:01;6.65;;;4.65;;
12869;SDS011;6503;48.572;13.460;2023-06-22T07:55:57;6.93;;;4.63;;
12869;SDS011;6503;48.572;13.460;2023-06-22T07:58:34;9.43;;;4.70;;
12869;SDS011;6503;48.572;13.460;2023-06-22T08:01:13;6.70;;;4.60;;
12869;SDS011;6503;48.572;13.460;2023-06-22T08:03:53;7.35;;;4.35;;
12869;SDS011;6503;48.572;13.460;2023-06-22T08:06:31;10.88;;;4.78;;
12869;SDS011;6503;48.572;13.460;2023-06-22T08:09:16;7.03;;;4.70;;
12869;SDS011;6503;48.572;13.460;2023-06-22T08:12:08;4.55;;;4.07;;
12869;SDS011;6503;48.572;13.460;2023-06-22T08:14:38;7.53;;;4.78;;
12869;SDS011;6503;48.572;13.460;2023-06-22T08:17:10;7.53;;;4.80;;
12869;SDS011;6503;48.572;13.460;2023-06-22T08:19:54;8.57;;;4.88;;
12869;SDS011;6503;48.572;13.460;2023-06-22T09:01:43;8.70;;;4.15;;
12869;SDS011;6503;48.572;13.460;2023-06-22T09:07:02;6.85;;;4.10;;
12869;SDS011;6503;48.572;13.460;2023-06-22T09:09:29;9.50;;;4.45;;
12869;SDS011;6503;48.572;13.460;2023-06-22T09:12:02;6.57;;;4.25;;
12869;SDS011;6503;48.572;13.460;2023-06-22T09:14:45;8.77;;;4.25;;
12869;SDS011;6503;48.572;13.460;2023-06-22T09:17:18;11.20;;;4.28;;
12869;SDS011;6503;48.572;13.460;2023-06-22T09:22:13;8.73;;;4.38;;
12869;SDS011;6503;48.572;13.460;2023-06-22T09:24:42;7.07;;;4.05;;
12869;SDS011;6503;48.572;13.460;2023-06-22T09:27:12;10.20;;;4.60;;
12869;SDS011;6503;48.572;13.460;2023-06-22T09:29:55;10.75;;;4.32;;
12869;SDS011;6503;48.572;13.460;2023-06-22T09:32:26;8.87;;;4.33;;
12869;SDS011;6503;48.572;13.460;2023-06-22T09:35:08;10.75;;;4.00;;
12869;SDS011;6503;48.572;13.460;2023-06-22T09:37:38;9.88;;;4.30;;
12869;SDS011;6503;48.572;13.460;2023-06-22T09:40:10;7.78;;;4.07;;
12869;SDS011;6503;48.572;13.460;2023-06-22T09:42:46;9.35;;;4.03;;
12869;SDS011;6503;48.572;13.460;2023-06-22T09:55:41;9.77;;;4.30;;
12869;SDS011;6503;48.572;13.460;2023-06-22T09:58:09;9.07;;;4.60;;
12869;SDS011;6503;48.572;13.460;2023-06-22T10:00:44;12.32;;;4.55;;
12869;SDS011;6503;48.572;13.460;2023-06-22T10:03:14;9.57;;;4.45;;
12869;SDS011;6503;48.572;13.460;2023-06-22T10:05:50;10.32;;;4.93;;
12869;SDS011;6503;48.572;13.460;2023-06-22T10:08:31;7.82;;;4.10;;
12869;SDS011;6503;48.572;13.460;2023-06-22T10:14:12;6.40;;;4.30;;
12869;SDS011;6503;48.572;13.460;2023-06-22T10:17:07;8.65;;;4.53;;
12869;SDS011;6503;48.572;13.460;2023-06-22T10:19:38;12.52;;;4.60;;
12869;SDS011;6503;48.572;13.460;2023-06-22T10:22:14;11.23;;;4.55;;
12869;SDS011;6503;48.572;13.460;2023-06-22T10:44:36;7.75;;;4.10;;
12869;SDS011;6503;48.572;13.460;2023-06-22T10:47:25;10.90;;;5.53;;
12869;SDS011;6503;48.572;13.460;2023-06-22T10:56:07;12.95;;;4.85;;
12869;SDS011;6503;48.572;13.460;2023-06-22T10:58:37;9.98;;;4.35;;
12869;SDS011;6503;48.572;13.460;2023-06-22T11:01:45;9.90;;;4.65;;
12869;SDS011;6503;48.572;13.460;2023-06-22T11:07:07;12.10;;;4.90;;
12869;SDS011;6503;48.572;13.460;2023-06-22T11:09:37;9.02;;;4.70;;
12869;SDS011;6503;48.572;13.460;2023-06-22T11:12:22;12.32;;;5.30;;
12869;SDS011;6503;48.572;13.460;2023-06-22T11:14:58;10.57;;;4.00;;
12869;SDS011;6503;48.572;13.460;2023-06-22T11:23:41;12.07;;;4.55;;
12869;SDS011;6503;48.572;13.460;2023-06-22T11:26:18;12.43;;;4.28;;
12869;SDS011;6503;48.572;13.460;2023-06-22T11:29:08;13.30;;;4.80;;
12869;SDS011;6503;48.572;13.460;2023-06-22T11:31:59;12.77;;;4.50;;
12869;SDS011;6503;48.572;13.460;2023-06-22T11:34:49;7.35;;;4.25;;
12869;SDS011;6503;48.572;13.460;2023-06-22T11:40:37;9.98;;;4.28;;
12869;SDS011;6503;48.572;13.460;2023-06-22T11:43:31;14.15;;;4.40;;
12869;SDS011;6503;48.572;13.460;2023-06-22T11:46:06;13.82;;;4.68;;
12869;SDS011;6503;48.572;13.460;2023-06-22T11:51:57;13.23;;;5.05;;
12869;SDS011;6503;48.572;13.460;2023-06-22T11:57:25;12.73;;;4.70;;
12869;SDS011;6503;48.572;13.460;2023-06-22T12:00:09;9.50;;;4.40;;
12869;SDS011;6503;48.572;13.460;2023-06-22T12:03:20;10.90;;;4.45;;
12869;SDS011;6503;48.572;13.460;2023-06-22T12:06:04;13.13;;;4.60;;
12869;SDS011;6503;48.572;13.460;2023-06-22T12:09:02;14.68;;;4.80;;
12869;SDS011;6503;48.572;13.460;2023-06-22T12:14:51;8.90;;;4.10;;
12869;SDS011;6503;48.572;13.460;2023-06-22T12:17:36;12.57;;;4.70;;
12869;SDS011;6503;48.572;13.460;2023-06-22T12:25:48;13.70;;;4.85;;
12869;SDS011;6503;48.572;13.460;2023-06-22T12:28:23;9.02;;;4.30;;
12869;SDS011;6503;48.572;13.460;2023-06-22T12:31:00;10.27;;;4.60;;
12869;SDS011;6503;48.572;13.460;2023-06-22T12:33:50;8.15;;;5.38;;
12869;SDS011;6503;48.572;13.460;2023-06-22T12:36:17;12.55;;;4.55;;
12869;SDS011;6503;48.572;13.460;2023-06-22T12:38:49;11.07;;;4.88;;
12869;SDS011;6503;48.572;13.460;2023-06-22T12:41:34;12.23;;;4.63;;
12869;SDS011;6503;48.572;13.460;2023-06-22T12:44:41;13.77;;;4.47;;
12869;SDS011;6503;48.572;13.460;2023-06-22T12:50:32;11.85;;;4.35;;
12869;SDS011;6503;48.572;13.460;2023-06-22T12:53:53;11.95;;;4.15;;
12869;SDS011;6503;48.572;13.460;2023-06-22T12:56:37;13.60;;;4.35;;
12869;SDS011;6503;48.572;13.460;2023-06-22T12:59:18;8.98;;;4.50;;
12869;SDS011;6503;48.572;13.460;2023-06-22T13:02:08;10.70;;;4.50;;
12869;SDS011;6503;48.572;13.460;2023-06-22T13:04:56;13.95;;;5.13;;
12869;SDS011;6503;48.572;13.460;2023-06-22T13:18:50;10.52;;;4.28;;
12869;SDS011;6503;48.572;13.460;2023-06-22T13:21:49;12.93;;;4.40;;
12869;SDS011;6503;48.572;13.460;2023-06-22T13:57:27;12.90;;;4.57;;
12869;SDS011;6503;48.572;13.460;2023-06-22T13:59:55;12.75;;;4.28;;
12869;SDS011;6503;48.572;13.460;2023-06-22T14:35:31;11.02;;;4.60;;
12869;SDS011;6503;48.572;13.460;2023-06-22T14:48:36;13.45;;;4.78;;
12869;SDS011;6503;48.572;13.460;2023-06-22T14:53:50;13.70;;;5.00;;
12869;SDS011;6503;48.572;13.460;2023-06-22T14:56:31;12.77;;;5.50;;
12869;SDS011;6503;48.572;13.460;2023-06-22T14:59:13;12.43;;;4.85;;
12869;SDS011;6503;48.572;13.460;2023-06-22T15:01:48;12.90;;;5.05;;
12869;SDS011;6503;48.572;13.460;2023-06-22T15:04:22;10.98;;;5.00;;
12869;SDS011;6503;48.572;13.460;2023-06-22T15:07:03;10.93;;;4.88;;
12869;SDS011;6503;48.572;13.460;2023-06-22T15:18:10;10.48;;;4.90;;
12869;SDS011;6503;48.572;13.460;2023-06-22T15:20:44;13.93;;;5.25;;
12869;SDS011;6503;48.572;13.460;2023-06-22T15:23:14;8.82;;;4.57;;
12869;SDS011;6503;48.572;13.460;2023-06-22T15:25:58;11.15;;;4.60;;
12869;SDS011;6503;48.572;13.460;2023-06-22T15:28:27;11.63;;;4.80;;
12869;SDS011;6503;48.572;13.460;2023-06-22T15:30:58;11.95;;;5.25;;
12869;SDS011;6503;48.572;13.460;2023-06-22T15:33:31;13.20;;;4.93;;
12869;SDS011;6503;48.572;13.460;2023-06-22T15:36:03;11.63;;;5.00;;
12869;SDS011;6503;48.572;13.460;2023-06-22T15:38:44;11.20;;;5.10;;
12869;SDS011;6503;48.572;13.460;2023-06-22T15:41:15;16.15;;;5.20;;
12869;SDS011;6503;48.572;13.460;2023-06-22T15:43:49;13.73;;;5.35;;
12869;SDS011;6503;48.572;13.460;2023-06-22T15:46:17;15.23;;;5.15;;
12869;SDS011;6503;48.572;13.460;2023-06-22T15:48:59;11.05;;;5.32;;
12869;SDS011;6503;48.572;13.460;2023-06-22T15:51:41;12.48;;;5.25;;
12869;SDS011;6503;48.572;13.460;2023-06-22T15:54:11;10.38;;;4.82;;
12869;SDS011;6503;48.572;13.460;2023-06-22T15:56:41;9.07;;;5.00;;
12869;SDS011;6503;48.572;13.460;2023-06-22T15:59:28;10.80;;;4.80;;
12869;SDS011;6503;48.572;13.460;2023-06-22T16:02:11;12.63;;;5.30;;
12869;SDS011;6503;48.572;13.460;2023-06-22T16:04:41;12.70;;;5.40;;
12869;SDS011;6503;48.572;13.460;2023-06-22T16:07:18;13.02;;;5.63;;
12869;SDS011;6503;48.572;13.460;2023-06-22T16:09:50;10.40;;;5.55;;
12869;SDS011;6503;48.572;13.460;2023-06-22T16:12:18;13.98;;;6.53;;
12869;SDS011;6503;48.572;13.460;2023-06-22T16:14:45;10.20;;;5.50;;
12869;SDS011;6503;48.572;13.460;2023-06-22T16:17:13;10.73;;;5.70;;
12869;SDS011;6503;48.572;13.460;2023-06-22T16:19:42;13.27;;;5.88;;
12869;SDS011;6503;48.572;13.460;2023-06-22T16:22:10;13.20;;;6.15;;
12869;SDS011;6503;48.572;13.460;2023-06-22T16:24:44;13.50;;;5.72;;
12869;SDS011;6503;48.572;13.460;2023-06-22T16:27:12;15.15;;;5.20;;
12869;SDS011;6503;48.572;13.460;2023-06-22T16:29:42;14.75;;;6.28;;
12869;SDS011;6503;48.572;13.460;2023-06-22T16:32:10;15.05;;;5.60;;
12869;SDS011;6503;48.572;13.460;2023-06-22T16:34:37;12.75;;;5.13;;
12869;SDS011;6503;48.572;13.460;2023-06-22T16:37:15;12.18;;;5.10;;
12869;SDS011;6503;48.572;13.460;2023-06-22T16:39:45;16.80;;;4.78;;
12869;SDS011;6503;48.572;13.460;2023-06-22T16:42:23;11.27;;;4.60;;
12869;SDS011;6503;48.572;13.460;2023-06-22T16:47:28;15.68;;;5.28;;
12869;SDS011;6503;48.572;13.460;2023-06-22T16:49:56;13.10;;;5.18;;
12869;SDS011;6503;48.572;13.460;2023-06-22T16:52:28;16.33;;;5.78;;
12869;SDS011;6503;48.572;13.460;2023-06-22T16:54:57;12.90;;;5.30;;
12869;SDS011;6503;48.572;13.460;2023-06-22T16:59:58;12.82;;;5.85;;
12869;SDS011;6503;48.572;13.460;2023-06-22T17:02:26;12.02;;;4.93;;
12869;SDS011;6503;48.572;13.460;2023-06-22T17:04:57;11.73;;;5.00;;
12869;SDS011;6503;48.572;13.460;2023-06-22T17:07:34;12.20;;;5.47;;
12869;SDS011;6503;48.572;13.460;2023-06-22T17:10:07;14.30;;;5.00;;
12869;SDS011;6503;48.572;13.460;2023-06-22T17:12:49;12.50;;;5.05;;
12869;SDS011;6503;48.572;13.460;2023-06-22T17:15:26;12.40;;;5.07;;
12869;SDS011;6503;48.572;13.460;2023-06-22T17:20:51;12.30;;;6.32;;
12869;SDS011;6503;48.572;13.460;2023-06-22T17:23:27;12.82;;;5.32;;
12869;SDS011;6503;48.572;13.460;2023-06-22T17:25:58;13.18;;;5.30;;
12869;SDS011;6503;48.572;13.460;2023-06-22T17:28:49;15.57;;;6.15;;
12869;SDS011;6503;48.572;13.460;2023-06-22T17:31:20;13.85;;;5.35;;
12869;SDS011;6503;48.572;13.460;2023-06-22T17:33:53;12.40;;;6.03;;
12869;SDS011;6503;48.572;13.460;2023-06-22T17:39:27;15.85;;;6.00;;
12869;SDS011;6503;48.572;13.460;2023-06-22T17:42:03;13.32;;;6.13;;
12869;SDS011;6503;48.572;13.460;2023-06-22T17:44:41;13.63;;;5.30;;
12869;SDS011;6503;48.572;13.460;2023-06-22T17:47:14;12.07;;;5.88;;
12869;SDS011;6503;48.572;13.460;2023-06-22T17:50:03;14.95;;;6.70;;
12869;SDS011;6503;48.572;13.460;2023-06-22T17:52:34;15.20;;;6.13;;
12869;SDS011;6503;48.572;13.460;2023-06-22T17:55:05;13.30;;;5.63;;
12869;SDS011;6503;48.572;13.460;2023-06-22T17:57:42;16.33;;;6.50;;
12869;SDS011;6503;48.572;13.460;2023-06-22T18:00:15;12.32;;;6.22;;
12869;SDS011;6503;48.572;13.460;2023-06-22T18:02:47;11.82;;;6.45;;
12869;SDS011;6503;48.572;13.460;2023-06-22T18:05:28;14.32;;;6.35;;
12869;SDS011;6503;48.572;13.460;2023-06-22T18:08:10;13.48;;;6.57;;
12869;SDS011;6503;48.572;13.460;2023-06-22T18:10:47;13.98;;;6.97;;
12869;SDS011;6503;48.572;13.460;2023-06-22T18:13:24;14.63;;;7.10;;
12869;SDS011;6503;48.572;13.460;2023-06-22T18:16:13;15.80;;;6.77;;
12869;SDS011;6503;48.572;13.460;2023-06-22T18:18:54;16.92;;;6.80;;
12869;SDS011;6503;48.572;13.460;2023-06-22T18:21:40;16.83;;;7.05;;
12869;SDS011;6503;48.572;13.460;2023-06-22T18:24:14;13.68;;;6.90;;
12869;SDS011;6503;48.572;13.460;2023-06-22T18:26:54;15.68;;;7.03;;
12869;SDS011;6503;48.572;13.460;2023-06-22T18:29:26;15.82;;;7.10;;
12869;SDS011;6503;48.572;13.460;2023-06-22T18:31:59;17.58;;;7.28;;
12869;SDS011;6503;48.572;13.460;2023-06-22T18:34:27;13.90;;;6.75;;
12869;SDS011;6503;48.572;13.460;2023-06-22T18:36:57;16.88;;;7.50;;
12869;SDS011;6503;48.572;13.460;2023-06-22T18:39:41;13.98;;;7.10;;
12869;SDS011;6503;48.572;13.460;2023-06-22T18:42:15;13.93;;;6.72;;
12869;SDS011;6503;48.572;13.460;2023-06-22T18:44:59;13.38;;;6.47;;
12869;SDS011;6503;48.572;13.460;2023-06-22T18:47:27;13.52;;;7.65;;
12869;SDS011;6503;48.572;13.460;2023-06-22T18:50:05;15.43;;;7.75;;
12869;SDS011;6503;48.572;13.460;2023-06-22T18:52:37;19.67;;;7.93;;
12869;SDS011;6503;48.572;13.460;2023-06-22T18:55:05;15.82;;;6.88;;
12869;SDS011;6503;48.572;13.460;2023-06-22T18:57:34;15.10;;;7.15;;
12869;SDS011;6503;48.572;13.460;2023-06-22T19:00:02;15.20;;;7.68;;
12869;SDS011;6503;48.572;13.460;2023-06-22T19:02:39;18.92;;;8.32;;
12869;SDS011;6503;48.572;13.460;2023-06-22T19:05:08;14.65;;;8.30;;
12869;SDS011;6503;48.572;13.460;2023-06-22T19:10:21;16.55;;;8.43;;
12869;SDS011;6503;48.572;13.460;2023-06-22T19:12:52;13.15;;;8.00;;
12869;SDS011;6503;48.572;13.460;2023-06-22T19:15:19;15.75;;;8.55;;
12869;SDS011;6503;48.572;13.460;2023-06-22T19:17:48;14.10;;;7.25;;
12869;SDS011;6503;48.572;13.460;2023-06-22T19:20:17;13.85;;;7.68;;
12869;SDS011;6503;48.572;13.460;2023-06-22T19:22:52;14.65;;;7.63;;
12869;SDS011;6503;48.572;13.460;2023-06-22T19:28:01;14.43;;;7.70;;
12869;SDS011;6503;48.572;13.460;2023-06-22T19:30:29;18.55;;;9.32;;
12869;SDS011;6503;48.572;13.460;2023-06-22T19:33:02;16.63;;;8.52;;
12869;SDS011;6503;48.572;13.460;2023-06-22T19:35:33;17.85;;;8.13;;
12869;SDS011;6503;48.572;13.460;2023-06-22T19:38:00;12.25;;;7.82;;
12869;SDS011;6503;48.572;13.460;2023-06-22T19:40:44;16.00;;;8.18;;
12869;SDS011;6503;48.572;13.460;2023-06-22T19:43:23;13.75;;;9.05;;
12869;SDS011;6503;48.572;13.460;2023-06-22T19:45:58;12.32;;;7.97;;
12869;SDS011;6503;48.572;13.460;2023-06-22T19:48:28;17.67;;;8.82;;
12869;SDS011;6503;48.572;13.460;2023-06-22T19:51:02;13.90;;;8.57;;
12869;SDS011;6503;48.572;13.460;2023-06-22T19:53:31;15.15;;;7.75;;
12869;SDS011;6503;48.572;13.460;2023-06-22T19:55:58;14.38;;;8.10;;
12869;SDS011;6503;48.572;13.460;2023-06-22T19:58:30;17.95;;;8.77;;
12869;SDS011;6503;48.572;13.460;2023-06-22T20:01:07;11.05;;;8.00;;
12869;SDS011;6503;48.572;13.460;2023-06-22T20:03:36;15.52;;;7.80;;
12869;SDS011;6503;48.572;13.460;2023-06-22T20:06:09;21.10;;;8.02;;
12869;SDS011;6503;48.572;13.460;2023-06-22T20:08:51;16.45;;;6.47;;
12869;SDS011;6503;48.572;13.460;2023-06-22T20:11:24;31.23;;;8.68;;
12869;SDS011;6503;48.572;13.460;2023-06-22T20:13:59;20.10;;;5.93;;
12869;SDS011;6503;48.572;13.460;2023-06-22T20:16:31;23.83;;;5.93;;
12869;SDS011;6503;48.572;13.460;2023-06-22T20:19:06;27.85;;;6.40;;
12869;SDS011;6503;48.572;13.460;2023-06-22T20:21:36;16.30;;;4.32;;
12869;SDS011;6503;48.572;13.460;2023-06-22T20:24:10;10.95;;;3.90;;
12869;SDS011;6503;48.572;13.460;2023-06-22T20:26:38;14.73;;;3.50;;
12869;SDS011;6503;48.572;13.460;2023-06-22T20:29:23;17.92;;;4.25;;
12869;SDS011;6503;48.572;13.460;2023-06-22T20:32:01;10.93;;;3.60;;